Time;durP1;ratioP1;P1;durP2;ratioP2;P2;SDS_P1;SDS_P2;PMS_P1;PMS_P2;Temp;Humidity;BMP_temperature;BMP_pressure;BME280_temperature;BME280_humidity;BME280_pressure;Samples;Min_cycle;Max_cycle;Signal;HPM_P1;HPM_P2
2022/09/16 00:00:33;;;;;;;;;;;;;;;20.17;71.32;99517.81;5316813;32;33780;-75
2022/09/16 00:03:35;;;;;;;;;;;;;;;19.51;73.31;99514.94;5322788;32;32880;-73
2022/09/16 00:06:37;;;;;;;;;;;;;;;20.09;71.77;99512.31;5321421;32;33422;-67
2022/09/16 00:09:39;;;;;;;;;;;;;;;19.30;73.37;99513.22;5334839;32;33213;-66
2022/09/16 00:12:41;;;;;;;;;;;;;;;19.30;73.58;99515.88;5301275;32;33467;-66
2022/09/16 00:15:43;;;;;;;;;;;;;;;18.59;76.52;99517.69;5292876;32;33383;-74
2022/09/16 00:18:45;;;;;;;;;;;;;;;19.36;73.39;99514.50;5320611;32;45328;-66
2022/09/16 00:21:47;;;;;;;;;;;;;;;19.52;72.81;99524.66;5312986;32;34095;-75
2022/09/16 00:24:49;;;;;;;;;;;;;;;19.36;72.21;99533.16;5333032;32;33609;-66
2022/09/16 00:27:51;;;;;;;;;;;;;;;19.99;70.04;99536.34;5318606;32;33112;-72
2022/09/16 00:30:53;;;;;;;;;;;;;;;19.23;72.37;99543.22;5330336;32;33657;-67
2022/09/16 00:33:55;;;;;;;;;;;;;;;19.72;70.29;99531.72;5321531;32;33520;-67
2022/09/16 00:36:57;;;;;;;;;;;;;;;18.40;75.93;99529.91;5321920;32;34160;-67
2022/09/16 00:39:58;;;;;;;;;;;;;;;18.40;76.36;99532.56;5326571;32;36085;-70
2022/09/16 00:43:00;;;;;;;;;;;;;;;18.22;76.90;99546.56;5316421;32;33723;-68
2022/09/16 00:46:03;;;;;;;;;;;;;;;18.27;76.91;99542.56;5329856;32;33125;-67
2022/09/16 00:49:08;;;;;;;;;;;;;;;19.03;73.85;99550.28;5319734;32;33687;-74
2022/09/16 00:52:10;;;;;;;;;;;;;;;18.88;73.83;99555.97;5315015;32;32881;-75
2022/09/16 00:55:13;;;;;;;;;;;;;;;18.66;74.87;99550.78;5317625;32;34937;-76
2022/09/16 00:58:20;;;;;;;;;;;;;;;18.12;77.85;99546.50;5322210;32;44215;-65
2022/09/16 01:01:22;;;;;;;;;;;;;;;19.21;72.85;99562.00;5311063;32;34517;-74
2022/09/16 01:04:25;;;;;;;;;;;;;;;19.62;70.96;99561.00;5308352;32;33801;-67
2022/09/16 01:07:36;;;;;;;;;;;;;;;19.40;71.38;99561.22;5332647;32;34529;-74
2022/09/16 01:10:41;;;;;;;;;;;;;;;19.45;70.77;99562.50;5300716;32;33658;-66
2022/09/16 01:13:42;;;;;;;;;;;;;;;18.45;75.43;99566.75;5334175;32;32831;-67
2022/09/16 01:16:46;;;;;;;;;;;;;;;18.49;75.40;99562.88;5293907;32;45281;-75
2022/09/16 01:20:04;;;;;;;;;;;;;;;19.52;69.62;99543.31;5320160;32;33722;-74
2022/09/16 01:23:09;;;;;;;;;;;;;;;18.67;73.96;99557.81;5320511;32;32960;-75
2022/09/16 01:26:34;;;;;;;;;;;;;;;17.93;77.20;99554.31;5319193;32;33685;-74
2022/09/16 01:29:55;;;;;;;;;;;;;;;17.65;79.45;99548.59;5322761;32;33405;-67
2022/09/16 01:33:23;;;;;;;;;;;;;;;18.57;75.36;99563.06;5309835;32;33829;-73
2022/09/16 01:36:29;;;;;;;;;;;;;;;18.17;76.19;99573.56;5310621;32;34572;-73
2022/09/16 01:39:31;;;;;;;;;;;;;;;17.71;78.84;99576.47;5335785;32;34565;-67
2022/09/16 01:42:52;;;;;;;;;;;;;;;18.45;75.00;99571.25;5315987;32;34037;-75
2022/09/16 01:46:06;;;;;;;;;;;;;;;17.91;76.64;99567.75;5306559;32;35785;-73
2022/09/16 01:49:11;;;;;;;;;;;;;;;18.66;74.19;99556.09;5319171;32;33696;-66
2022/09/16 01:52:13;;;;;;;;;;;;;;;18.44;72.74;99556.25;5318573;32;34416;-73
2022/09/16 01:55:18;;;;;;;;;;;;;;;18.69;72.53;99560.38;5331178;32;44350;-66
2022/09/16 01:58:25;;;;;;;;;;;;;;;18.98;70.32;99563.16;5303295;32;34144;-71
2022/09/16 02:01:46;;;;;;;;;;;;;;;17.92;73.91;99556.16;5329071;32;33307;-75
2022/09/16 02:04:50;;;;;;;;;;;;;;;17.66;76.28;99555.59;5322803;32;45623;-65
2022/09/16 02:07:54;;;;;;;;;;;;;;;18.62;73.18;99555.53;5317965;32;33758;-74
2022/09/16 02:10:58;;;;;;;;;;;;;;;17.88;75.23;99565.31;5329948;32;33677;-66
2022/09/16 02:14:02;;;;;;;;;;;;;;;18.77;71.82;99564.03;5318719;32;33824;-73
2022/09/16 02:17:06;;;;;;;;;;;;;;;18.00;75.07;99569.63;5306327;32;33514;-74
2022/09/16 02:20:09;;;;;;;;;;;;;;;19.05;71.39;99569.63;5317583;32;33011;-66
2022/09/16 02:23:16;;;;;;;;;;;;;;;19.49;69.01;99565.72;5306920;32;34360;-67
2022/09/16 02:26:20;;;;;;;;;;;;;;;19.16;70.05;99572.22;5329505;32;45761;-66
2022/09/16 02:29:23;;;;;;;;;;;;;;;18.79;71.17;99590.53;5305122;32;34501;-76
2022/09/16 02:32:25;;;;;;;;;;;;;;;17.67;76.19;99589.16;5318305;32;33563;-66
2022/09/16 02:35:27;;;;;;;;;;;;;;;17.80;75.21;99586.38;5300613;32;34284;-73
2022/09/16 02:38:30;;;;;;;;;;;;;;;17.32;75.56;99590.19;5335047;32;34375;-67
2022/09/16 02:41:31;;;;;;;;;;;;;;;17.57;74.00;99593.53;5301504;32;33610;-67
2022/09/16 02:44:33;;;;;;;;;;;;;;;17.74;73.57;99601.00;5321617;32;33085;-66
2022/09/16 02:48:02;;;;;;;;;;;;;;;17.44;75.83;99608.75;5329412;32;33926;-75
2022/09/16 02:51:08;;;;;;;;;;;;;;;17.52;74.62;99630.25;5313537;32;33410;-73
2022/09/16 02:54:24;;;;;;;;;;;;;;;17.95;73.53;99624.16;5334720;32;33700;-66
2022/09/16 02:57:26;;;;;;;;;;;;;;;18.16;73.18;99630.34;5299551;32;33211;-72
2022/09/16 03:00:27;;;;;;;;;;;;;;;18.16;72.12;99627.69;5300436;33;33710;-72
2022/09/16 03:03:29;;;;;;;;;;;;;;;18.74;70.53;99617.56;5320991;32;33716;-67
2022/09/16 03:06:34;;;;;;;;;;;;;;;19.31;67.35;99618.81;5320588;32;33542;-67
2022/09/16 03:09:38;;;;;;;;;;;;;;;18.63;70.25;99621.09;5321975;32;33170;-67
2022/09/16 03:12:40;;;;;;;;;;;;;;;17.89;72.41;99622.00;5313155;32;33476;-74
2022/09/16 03:15:45;;;;;;;;;;;;;;;18.73;69.64;99625.66;5305790;32;33853;-74
2022/09/16 03:18:57;;;;;;;;;;;;;;;19.23;67.14;99628.44;5320964;32;46238;-74
2022/09/16 03:21:59;;;;;;;;;;;;;;;19.60;64.59;99620.78;5296722;32;33699;-72
2022/09/16 03:25:04;;;;;;;;;;;;;;;18.72;67.28;99602.66;5329578;32;34010;-67
2022/09/16 03:28:09;;;;;;;;;;;;;;;18.02;70.54;99607.56;5315536;32;33514;-72
2022/09/16 03:31:21;;;;;;;;;;;;;;;18.49;68.89;99604.59;5320245;32;34113;-74
2022/09/16 03:34:26;;;;;;;;;;;;;;;17.05;73.61;99619.75;5305753;32;47016;-66
2022/09/16 03:37:28;;;;;;;;;;;;;;;17.21;73.02;99619.41;5316546;32;33760;-66
2022/09/16 03:40:31;;;;;;;;;;;;;;;17.99;70.81;99617.63;5314938;33;34561;-67
2022/09/16 03:43:33;;;;;;;;;;;;;;;17.58;71.44;99622.66;5302690;32;34050;-67
2022/09/16 03:46:35;;;;;;;;;;;;;;;17.85;70.11;99622.25;5315895;32;33171;-74
2022/09/16 03:49:37;;;;;;;;;;;;;;;17.66;70.80;99634.47;5316491;32;32862;-75
2022/09/16 03:52:39;;;;;;;;;;;;;;;16.83;74.21;99632.16;5328244;32;33864;-66
2022/09/16 03:55:41;;;;;;;;;;;;;;;17.18;72.89;99630.25;5311678;32;33588;-69
2022/09/16 03:58:43;;;;;;;;;;;;;;;17.77;69.69;99637.97;5319238;32;33525;-66
2022/09/16 04:01:45;;;;;;;;;;;;;;;17.06;73.42;99642.66;5313404;32;44346;-66
2022/09/16 04:04:47;;;;;;;;;;;;;;;17.37;73.08;99639.44;5316079;32;33736;-66
2022/09/16 04:07:49;;;;;;;;;;;;;;;17.36;72.90;99640.41;5336093;32;33468;-66
2022/09/16 04:10:59;;;;;;;;;;;;;;;17.31;72.79;99646.91;5298791;32;34280;-67
2022/09/16 04:14:00;;;;;;;;;;;;;;;17.81;70.49;99654.53;5318016;32;33489;-73
2022/09/16 04:17:02;;;;;;;;;;;;;;;18.10;69.27;99650.34;5282708;32;34181;-73
2022/09/16 04:20:06;;;;;;;;;;;;;;;17.63;71.60;99646.16;5315663;32;34192;-67
2022/09/16 04:23:08;;;;;;;;;;;;;;;17.87;70.02;99640.72;5317560;32;33709;-75
2022/09/16 04:26:10;;;;;;;;;;;;;;;17.71;71.44;99657.09;5320474;32;34209;-65
2022/09/16 04:29:12;;;;;;;;;;;;;;;17.85;70.83;99661.28;5335721;32;33001;-73
2022/09/16 04:32:14;;;;;;;;;;;;;;;18.04;69.83;99664.16;5313440;32;32416;-74
2022/09/16 04:35:18;;;;;;;;;;;;;;;17.96;70.16;99658.59;5333207;32;34380;-74
2022/09/16 04:38:20;;;;;;;;;;;;;;;18.01;71.16;99656.41;5320839;32;33084;-67
2022/09/16 04:41:23;;;;;;;;;;;;;;;18.08;71.23;99649.59;5313414;32;34477;-75
2022/09/16 04:44:25;;;;;;;;;;;;;;;16.76;75.54;99653.00;5334718;32;33869;-75
2022/09/16 04:47:28;;;;;;;;;;;;;;;16.83;76.51;99656.03;5313847;32;33154;-75
2022/09/16 04:50:30;;;;;;;;;;;;;;;17.56;73.31;99656.44;5328836;32;33478;-66
2022/09/16 04:53:32;;;;;;;;;;;;;;;17.06;74.26;99660.41;5304812;32;34031;-71
2022/09/16 04:56:34;;;;;;;;;;;;;;;17.03;75.50;99663.31;5329244;32;33883;-73
2022/09/16 04:59:35;;;;;;;;;;;;;;;17.43;75.13;99660.19;5321691;32;34384;-66
2022/09/16 05:02:37;;;;;;;;;;;;;;;17.79;72.62;99656.47;5315663;32;32825;-75
2022/09/16 05:05:39;;;;;;;;;;;;;;;18.66;68.94;99662.56;5338127;32;33870;-66
2022/09/16 05:08:41;;;;;;;;;;;;;;;17.00;74.58;99668.84;5317936;32;33966;-74
2022/09/16 05:11:43;;;;;;;;;;;;;;;17.52;73.88;99665.66;5330118;32;33847;-66
2022/09/16 05:14:45;;;;;;;;;;;;;;;17.79;72.34;99661.78;5303291;32;44802;-67
2022/09/16 05:17:46;;;;;;;;;;;;;;;18.52;69.44;99655.72;5320983;32;33699;-66
2022/09/16 05:20:59;;;;;;;;;;;;;;;18.87;67.75;99658.13;5320473;32;32947;-66
2022/09/16 05:24:01;;;;;;;;;;;;;;;19.07;66.60;99666.25;5314056;32;33083;-67
2022/09/16 05:27:03;;;;;;;;;;;;;;;17.76;72.02;99670.81;5333442;32;34200;-69
2022/09/16 05:30:05;;;;;;;;;;;;;;;17.85;70.69;99672.75;5315850;32;33747;-74
2022/09/16 05:33:06;;;;;;;;;;;;;;;17.01;74.05;99681.19;5331398;32;33297;-66
2022/09/16 05:36:09;;;;;;;;;;;;;;;17.88;71.20;99687.59;5315872;32;34055;-66
2022/09/16 05:39:11;;;;;;;;;;;;;;;18.14;70.09;99682.84;5309527;32;32968;-66
2022/09/16 05:42:29;;;;;;;;;;;;;;;17.78;71.42;99686.69;5328517;32;33682;-75
2022/09/16 05:45:30;;;;;;;;;;;;;;;17.68;71.75;99675.88;5318663;32;33574;-71
2022/09/16 05:48:33;;;;;;;;;;;;;;;17.56;71.92;99675.03;5332871;32;33018;-70
2022/09/16 05:51:36;;;;;;;;;;;;;;;18.11;69.59;99672.47;5322597;32;33975;-65
2022/09/16 05:54:38;;;;;;;;;;;;;;;17.67;71.51;99679.50;5310842;32;32900;-67
2022/09/16 05:57:39;;;;;;;;;;;;;;;17.83;70.47;99690.63;5323548;32;32985;-72
2022/09/16 06:00:41;;;;;;;;;;;;;;;17.93;69.84;99676.62;5315445;32;32885;-70
2022/09/16 06:03:44;;;;;;;;;;;;;;;17.64;69.62;99663.78;5337196;32;33338;-68
2022/09/16 06:06:46;;;;;;;;;;;;;;;18.21;68.64;99665.41;5306280;32;33589;-67
2022/09/16 06:09:48;;;;;;;;;;;;;;;18.32;66.87;99673.34;5333491;32;32946;-72
2022/09/16 06:12:50;;;;;;;;;;;;;;;18.60;66.24;99674.56;5325512;32;32817;-71
2022/09/16 06:15:53;;;;;;;;;;;;;;;18.50;65.76;99668.34;5314589;32;34527;-66
2022/09/16 06:18:56;;;;;;;;;;;;;;;18.49;66.97;99671.97;5323422;32;33169;-66
2022/09/16 06:21:58;;;;;;;;;;;;;;;18.57;65.94;99674.81;5315543;32;33077;-72
2022/09/16 06:24:59;;;;;;;;;;;;;;;18.52;64.85;99681.50;5334978;32;32952;-68
2022/09/16 06:28:02;;;;;;;;;;;;;;;18.81;62.94;99682.59;5326621;32;33043;-68
2022/09/16 06:31:14;;;;;;;;;;;;;;;18.31;65.40;99674.34;5342978;32;32878;-68
2022/09/16 06:34:17;;;;;;;;;;;;;;;18.67;64.60;99688.22;5322449;32;44429;-74
2022/09/16 06:37:19;;;;;;;;;;;;;;;19.11;62.41;99675.63;5315105;32;32689;-66
2022/09/16 06:40:21;;;;;;;;;;;;;;;18.65;62.19;99663.53;5324331;32;33909;-65
2022/09/16 06:43:23;;;;;;;;;;;;;;;18.72;63.59;99667.41;5324031;32;33089;-66
2022/09/16 06:46:26;;;;;;;;;;;;;;;17.88;65.48;99666.34;5338497;32;32974;-68
2022/09/16 06:49:28;;;;;;;;;;;;;;;18.87;62.54;99666.13;5306488;32;34079;-71
2022/09/16 06:52:30;;;;;;;;;;;;;;;19.08;62.76;99663.44;5339757;32;34762;-71
2022/09/16 06:55:33;;;;;;;;;;;;;;;18.84;62.93;99660.19;5322713;32;33054;-75
2022/09/16 06:58:35;;;;;;;;;;;;;;;19.19;62.20;99660.69;5327050;32;33129;-68
2022/09/16 07:01:37;;;;;;;;;;;;;;;19.04;61.97;99655.84;5324652;32;33566;-73
2022/09/16 07:04:39;;;;;;;;;;;;;;;19.62;59.79;99664.97;5325235;32;34184;-72
2022/09/16 07:07:41;;;;;;;;;;;;;;;18.62;62.77;99666.47;5337283;32;32799;-64
2022/09/16 07:10:43;;;;;;;;;;;;;;;19.82;59.62;99665.87;5323467;32;32754;-66
2022/09/16 07:13:48;;;;;;;;;;;;;;;20.17;57.33;99672.53;5330995;32;44839;-66
2022/09/16 07:16:50;;;;;;;;;;;;;;;19.56;60.34;99680.63;5302660;32;32718;-73
2022/09/16 07:19:52;;;;;;;;;;;;;;;19.67;59.23;99677.91;5318659;32;34505;-66
2022/09/16 07:22:54;;;;;;;;;;;;;;;20.15;57.50;99674.50;5324761;32;34257;-67
2022/09/16 07:26:00;;;;;;;;;;;;;;;20.00;58.13;99688.22;5322679;32;33549;-71
2022/09/16 07:29:03;;;;;;;;;;;;;;;19.85;58.09;99673.59;5333573;32;34470;-74
2022/09/16 07:32:05;;;;;;;;;;;;;;;20.62;55.36;99691.56;5325881;32;32817;-72
2022/09/16 07:35:07;;;;;;;;;;;;;;;20.49;55.42;99697.19;5334297;32;34388;-66
2022/09/16 07:38:10;;;;;;;;;;;;;;;20.87;54.67;99695.50;5322117;32;33894;-72
2022/09/16 07:41:13;;;;;;;;;;;;;;;20.11;56.70;99695.28;5319521;32;32681;-73
2022/09/16 07:44:16;;;;;;;;;;;;;;;20.75;55.52;99699.28;5332670;32;45425;-74
2022/09/16 07:47:18;;;;;;;;;;;;;;;20.70;54.93;99701.53;5312297;32;34487;-75
2022/09/16 07:50:23;;;;;;;;;;;;;;;20.89;54.27;99704.19;5335369;32;35034;-68
2022/09/16 07:53:26;;;;;;;;;;;;;;;20.79;53.66;99706.00;5320798;32;33138;-73
2022/09/16 07:56:33;;;;;;;;;;;;;;;20.42;55.04;99706.69;5326187;32;34265;-66
2022/09/16 07:59:35;;;;;;;;;;;;;;;20.16;55.23;99713.56;5326627;32;32853;-71
2022/09/16 08:02:36;;;;;;;;;;;;;;;20.33;54.70;99720.03;5302740;32;33029;-67
2022/09/16 08:05:38;;;;;;;;;;;;;;;20.44;54.67;99718.06;5338493;32;34228;-72
2022/09/16 08:08:40;;;;;;;;;;;;;;;20.17;53.92;99717.91;5305705;32;34062;-68
2022/09/16 08:11:42;;;;;;;;;;;;;;;20.44;54.66;99717.22;5341439;32;34356;-68
2022/09/16 08:14:44;;;;;;;;;;;;;;;20.27;55.05;99721.41;5305128;32;44629;-69
2022/09/16 08:17:46;;;;;;;;;;;;;;;20.50;54.25;99722.88;5309205;32;33024;-68
2022/09/16 08:20:48;;;;;;;;;;;;;;;21.09;52.19;99719.19;5323727;32;34524;-73
2022/09/16 08:23:50;;;;;;;;;;;;;;;19.87;56.10;99734.78;5317534;32;34181;-70
2022/09/16 08:26:52;;;;;;;;;;;;;;;19.82;56.23;99721.84;5324589;32;33185;-71
2022/09/16 08:29:54;;;;;;;;;;;;;;;20.41;53.44;99713.00;5319978;32;34244;-66
2022/09/16 08:32:56;;;;;;;;;;;;;;;20.34;52.97;99725.22;5336853;32;36071;-69
2022/09/16 08:35:58;;;;;;;;;;;;;;;20.11;52.97;99721.13;5327207;32;33726;-71
2022/09/16 08:39:00;;;;;;;;;;;;;;;19.67;53.87;99728.53;5338144;32;34491;-74
2022/09/16 08:42:05;;;;;;;;;;;;;;;20.34;52.24;99721.69;5306426;32;33153;-66
2022/09/16 08:45:18;;;;;;;;;;;;;;;19.96;52.53;99721.47;5325809;32;34433;-75
2022/09/16 08:48:40;;;;;;;;;;;;;;;20.11;51.35;99726.44;5324505;32;43259;-69
2022/09/16 08:51:43;;;;;;;;;;;;;;;19.49;52.90;99721.13;5327182;32;32296;-65
2022/09/16 08:54:50;;;;;;;;;;;;;;;20.64;49.30;99715.44;5326579;32;46676;-70
2022/09/16 08:58:12;;;;;;;;;;;;;;;19.72;50.85;99729.00;5309172;32;33235;-70
2022/09/16 09:01:29;;;;;;;;;;;;;;;20.13;50.95;99724.47;5328093;32;46007;-69
2022/09/16 09:04:32;;;;;;;;;;;;;;;20.02;51.64;99722.75;5327329;32;31961;-63
2022/09/16 09:07:45;;;;;;;;;;;;;;;20.41;50.55;99739.69;5320604;32;34110;-66
2022/09/16 09:10:51;;;;;;;;;;;;;;;19.64;52.16;99744.78;5346973;32;46939;-63
2022/09/16 09:14:11;;;;;;;;;;;;;;;20.75;49.34;99740.19;5329006;32;32981;-70
2022/09/16 09:17:49;;;;;;;;;;;;;;;19.93;51.02;99742.25;5304383;32;34560;-68
2022/09/16 09:20:53;;;;;;;;;;;;;;;20.14;50.52;99731.50;5245178;32;44777;-68
2022/09/16 09:24:12;;;;;;;;;;;;;;;20.54;49.52;99721.63;5327496;32;33088;-66
2022/09/16 09:27:34;;;;;;;;;;;;;;;20.21;49.61;99730.81;5317897;32;44574;-70
2022/09/16 09:30:36;;;;;;;;;;;;;;;20.41;48.46;99718.34;5343853;32;33642;-68
2022/09/16 09:33:47;;;;;;;;;;;;;;;20.25;48.80;99726.91;5326544;32;34262;-67
2022/09/16 09:36:57;;;;;;;;;;;;;;;20.99;47.69;99725.53;5335121;32;47045;-68
2022/09/16 09:40:10;;;;;;;;;;;;;;;20.34;49.64;99730.56;5316167;32;34574;-67
2022/09/16 09:43:12;;;;;;;;;;;;;;;21.33;47.34;99725.94;5307710;32;34627;-74
2022/09/16 09:46:16;;;;;;;;;;;;;;;19.72;49.52;99723.66;5338626;32;42788;-68
2022/09/16 09:49:27;;;;;;;;;;;;;;;19.71;50.35;99727.31;5320825;32;31611;-68
2022/09/16 09:52:32;;;;;;;;;;;;;;;20.26;48.40;99733.91;5327226;32;34205;-68
2022/09/16 09:55:34;;;;;;;;;;;;;;;20.38;45.55;99731.12;5330333;32;33699;-71
2022/09/16 09:58:38;;;;;;;;;;;;;;;20.83;45.34;99718.13;5326504;32;32961;-67
2022/09/16 10:01:39;;;;;;;;;;;;;;;19.69;47.79;99723.91;5315364;32;34233;-70
2022/09/16 10:04:41;;;;;;;;;;;;;;;21.30;44.56;99718.19;5317779;32;33279;-68
2022/09/16 10:07:44;;;;;;;;;;;;;;;20.92;44.97;99701.22;5338552;32;34873;-73
2022/09/16 10:10:51;;;;;;;;;;;;;;;20.49;45.24;99689.19;5322459;32;32931;-73
2022/09/16 10:13:54;;;;;;;;;;;;;;;21.36;42.71;99694.41;5320938;32;34470;-67
2022/09/16 10:16:57;;;;;;;;;;;;;;;21.61;41.86;99697.41;5305229;32;33141;-68
2022/09/16 10:20:05;;;;;;;;;;;;;;;20.77;43.69;99708.00;5321314;32;33015;-69
2022/09/16 10:23:12;;;;;;;;;;;;;;;21.96;42.17;99696.69;5320084;32;34273;-68
2022/09/16 10:26:19;;;;;;;;;;;;;;;21.97;40.26;99701.06;5312987;32;44416;-75
2022/09/16 10:29:21;;;;;;;;;;;;;;;21.56;38.74;99700.53;5328102;32;33023;-68
2022/09/16 10:32:23;;;;;;;;;;;;;;;21.79;40.16;99700.16;5325060;32;34111;-71
2022/09/16 10:35:25;;;;;;;;;;;;;;;21.31;39.98;99696.66;5330631;32;33502;-65
2022/09/16 10:38:45;;;;;;;;;;;;;;;20.86;40.00;99684.91;5313754;32;34292;-68
2022/09/16 10:41:47;;;;;;;;;;;;;;;21.22;40.23;99694.00;5326010;32;44851;-69
2022/09/16 10:44:50;;;;;;;;;;;;;;;22.45;37.35;99694.56;5327967;32;33046;-68
2022/09/16 10:47:56;;;;;;;;;;;;;;;22.51;37.30;99688.59;5313957;32;33016;-68
2022/09/16 10:51:02;;;;;;;;;;;;;;;21.82;39.16;99689.97;5342927;32;33012;-67
2022/09/16 10:54:07;;;;;;;;;;;;;;;22.19;39.35;99682.91;5321684;32;33943;-67
2022/09/16 10:57:27;;;;;;;;;;;;;;;20.80;42.31;99695.22;5328073;32;35346;-68
2022/09/16 11:00:30;;;;;;;;;;;;;;;21.40;41.75;99699.47;5342333;32;31117;-67
2022/09/16 11:03:53;;;;;;;;;;;;;;;21.20;41.60;99704.00;5328461;32;32970;-72
2022/09/16 11:07:01;;;;;;;;;;;;;;;20.44;41.34;99704.72;5336504;32;33408;-73
2022/09/16 11:10:09;;;;;;;;;;;;;;;21.37;38.79;99700.59;5325723;32;34553;-72
2022/09/16 11:13:26;;;;;;;;;;;;;;;21.14;38.29;99707.25;5331205;32;34165;-67
2022/09/16 11:16:31;;;;;;;;;;;;;;;21.30;38.27;99705.69;5303255;32;34500;-67
2022/09/16 11:19:36;;;;;;;;;;;;;;;20.45;39.87;99705.59;5328529;32;33370;-70
2022/09/16 11:22:38;;;;;;;;;;;;;;;21.57;38.37;99707.56;5338363;32;34123;-70
2022/09/16 11:25:43;;;;;;;;;;;;;;;21.52;38.42;99699.16;5326033;32;34160;-73
2022/09/16 11:29:04;;;;;;;;;;;;;;;21.67;38.69;99707.53;5330543;32;44839;-69
2022/09/16 11:32:09;;;;;;;;;;;;;;;21.79;37.13;99695.66;5331342;32;33650;-65
2022/09/16 11:35:30;;;;;;;;;;;;;;;22.07;37.16;99688.44;5322285;32;32771;-71
2022/09/16 11:38:38;;;;;;;;;;;;;;;21.76;38.07;99679.03;5339170;32;33749;-68
2022/09/16 11:42:00;;;;;;;;;;;;;;;22.93;36.88;99669.22;5311814;32;45072;-69
2022/09/16 11:45:07;;;;;;;;;;;;;;;23.76;33.97;99675.75;5324882;32;33914;-68
2022/09/16 11:48:24;;;;;;;;;;;;;;;23.33;34.02;99673.16;5312266;32;33021;-69
2022/09/16 11:51:35;;;;;;;;;;;;;;;23.91;34.14;99665.22;5316470;32;34556;-70
2022/09/16 11:54:45;;;;;;;;;;;;;;;23.16;37.39;99651.59;5340769;32;33953;-70
2022/09/16 11:57:51;;;;;;;;;;;;;;;24.24;36.65;99655.41;5311477;32;44614;-69
2022/09/16 12:00:54;;;;;;;;;;;;;;;22.28;40.23;99653.38;5314437;32;35648;-70
2022/09/16 12:04:04;;;;;;;;;;;;;;;22.54;40.70;99655.28;5320470;32;34482;-72
2022/09/16 12:07:13;;;;;;;;;;;;;;;22.59;38.67;99653.00;5323031;32;32820;-73
2022/09/16 12:10:15;;;;;;;;;;;;;;;22.85;37.17;99650.34;5326845;32;44967;-69
2022/09/16 12:13:19;;;;;;;;;;;;;;;22.82;38.45;99651.53;5324060;32;34094;-72
2022/09/16 12:16:24;;;;;;;;;;;;;;;24.19;36.00;99635.44;5302775;32;33480;-71
2022/09/16 12:19:33;;;;;;;;;;;;;;;23.61;36.93;99634.44;5317749;32;33695;-71
2022/09/16 12:22:36;;;;;;;;;;;;;;;22.58;38.52;99645.97;5308218;32;32921;-69
2022/09/16 12:25:46;;;;;;;;;;;;;;;23.92;36.76;99633.88;5322973;32;33794;-69
2022/09/16 12:28:51;;;;;;;;;;;;;;;24.15;36.71;99640.31;5306135;32;45579;-73
2022/09/16 12:32:01;;;;;;;;;;;;;;;23.97;37.35;99634.22;5337912;32;33845;-70
2022/09/16 12:35:11;;;;;;;;;;;;;;;23.75;35.80;99628.44;5313888;32;34133;-72
2022/09/16 12:38:16;;;;;;;;;;;;;;;22.53;38.59;99630.34;5313897;32;33654;-70
2022/09/16 12:41:18;;;;;;;;;;;;;;;22.55;38.79;99635.56;5317246;32;44477;-69
2022/09/16 12:44:25;;;;;;;;;;;;;;;23.34;37.25;99629.25;5326450;32;34106;-73
2022/09/16 12:47:40;;;;;;;;;;;;;;;23.45;37.02;99610.22;5331288;32;32929;-73
2022/09/16 12:50:45;;;;;;;;;;;;;;;23.80;37.45;99619.06;5310925;32;32960;-73
2022/09/16 12:54:06;;;;;;;;;;;;;;;22.96;39.59;99613.47;5331636;32;47977;-73
2022/09/16 12:57:26;;;;;;;;;;;;;;;23.29;39.41;99604.75;5339466;32;33556;-68
2022/09/16 13:00:31;;;;;;;;;;;;;;;23.56;39.08;99609.91;5327318;32;34315;-71
2022/09/16 13:03:33;;;;;;;;;;;;;;;23.38;39.15;99617.19;5325306;32;33115;-72
2022/09/16 13:06:37;;;;;;;;;;;;;;;22.81;40.58;99612.34;5323957;32;33801;-73
2022/09/16 13:09:39;;;;;;;;;;;;;;;22.74;40.66;99602.41;5320204;32;33579;-69
2022/09/16 13:12:41;;;;;;;;;;;;;;;21.96;42.30;99604.87;5337607;32;33574;-69
2022/09/16 13:15:53;;;;;;;;;;;;;;;23.06;39.97;99602.66;5294139;32;45476;-70
2022/09/16 13:19:13;;;;;;;;;;;;;;;22.24;41.41;99592.31;5343138;32;34167;-69
2022/09/16 13:22:23;;;;;;;;;;;;;;;22.26;41.98;99604.53;5309299;32;45489;-69
2022/09/16 13:25:25;;;;;;;;;;;;;;;23.28;39.80;99595.88;5317656;32;34144;-72
2022/09/16 13:28:35;;;;;;;;;;;;;;;23.17;39.80;99605.03;5319851;32;33096;-72
2022/09/16 13:31:44;;;;;;;;;;;;;;;23.13;39.17;99609.06;5307837;32;35261;-69
2022/09/16 13:34:46;;;;;;;;;;;;;;;23.09;39.44;99607.69;5327670;32;44362;-72
2022/09/16 13:37:50;;;;;;;;;;;;;;;22.76;41.03;99600.41;5326861;32;33459;-71
2022/09/16 13:40:56;;;;;;;;;;;;;;;22.92;39.86;99593.34;5339927;32;33819;-68
2022/09/16 13:43:58;;;;;;;;;;;;;;;23.12;39.33;99590.44;5316137;32;34047;-70
2022/09/16 13:47:06;;;;;;;;;;;;;;;23.24;39.36;99581.94;5309608;32;34365;-69
2022/09/16 13:50:12;;;;;;;;;;;;;;;22.83;39.96;99588.91;5335527;32;34397;-73
2022/09/16 13:53:19;;;;;;;;;;;;;;;22.61;40.90;99584.91;5307200;32;44129;-69
2022/09/16 13:56:24;;;;;;;;;;;;;;;23.49;39.38;99577.53;5323577;32;32510;-70
2022/09/16 13:59:38;;;;;;;;;;;;;;;22.32;41.73;99574.47;5319931;32;33611;-71
2022/09/16 14:02:55;;;;;;;;;;;;;;;23.60;39.24;99560.31;5331952;32;34511;-70
2022/09/16 14:05:57;;;;;;;;;;;;;;;22.90;40.36;99568.53;5329291;32;34172;-73
2022/09/16 14:09:14;;;;;;;;;;;;;;;23.04;40.73;99564.44;5325341;32;34472;-72
2022/09/16 14:12:28;;;;;;;;;;;;;;;22.78;41.21;99555.53;5328196;32;44656;-69
2022/09/16 14:15:33;;;;;;;;;;;;;;;23.18;40.56;99561.13;5292345;32;33684;-75
2022/09/16 14:18:35;;;;;;;;;;;;;;;23.22;41.20;99562.50;5330369;32;33139;-69
2022/09/16 14:21:37;;;;;;;;;;;;;;;23.03;41.41;99553.88;5322062;32;33582;-73
2022/09/16 14:24:40;;;;;;;;;;;;;;;22.01;44.25;99554.41;5308820;32;33672;-73
2022/09/16 14:27:42;;;;;;;;;;;;;;;22.67;42.49;99552.16;5328543;32;32858;-68
2022/09/16 14:30:57;;;;;;;;;;;;;;;22.85;42.36;99549.38;5322895;32;44680;-68
2022/09/16 14:34:03;;;;;;;;;;;;;;;22.67;42.40;99554.00;5326788;32;33661;-70
2022/09/16 14:37:05;;;;;;;;;;;;;;;21.40;45.90;99560.47;5306646;32;33843;-73
2022/09/16 14:40:15;;;;;;;;;;;;;;;22.06;44.60;99555.66;5318863;32;32992;-69
2022/09/16 14:43:18;;;;;;;;;;;;;;;22.22;43.95;99556.81;5327444;32;45044;-74
2022/09/16 14:46:20;;;;;;;;;;;;;;;22.54;42.91;99559.75;5327006;32;33483;-70
2022/09/16 14:49:21;;;;;;;;;;;;;;;22.31;43.06;99553.22;5340118;32;33729;-73
2022/09/16 14:52:27;;;;;;;;;;;;;;;21.72;44.63;99544.78;5324997;32;33656;-69
2022/09/16 14:55:30;;;;;;;;;;;;;;;22.12;43.74;99533.66;5322574;32;34650;-68
2022/09/16 14:58:32;;;;;;;;;;;;;;;22.50;42.62;99534.28;5329875;32;34385;-75
2022/09/16 15:01:34;;;;;;;;;;;;;;;21.61;44.69;99526.28;5324545;32;33358;-72
2022/09/16 15:04:36;;;;;;;;;;;;;;;22.14;44.29;99530.81;5326017;32;32865;-70
2022/09/16 15:07:38;;;;;;;;;;;;;;;22.25;44.04;99521.72;5311330;32;33410;-69
2022/09/16 15:11:02;;;;;;;;;;;;;;;21.91;44.84;99525.09;5347302;32;35644;-69
2022/09/16 15:14:07;;;;;;;;;;;;;;;21.32;47.00;99530.00;5306610;32;32917;-69
2022/09/16 15:17:08;;;;;;;;;;;;;;;22.27;45.65;99533.09;5308810;32;33110;-72
2022/09/16 15:20:17;;;;;;;;;;;;;;;22.39;46.05;99542.56;5340343;32;33022;-72
2022/09/16 15:23:21;;;;;;;;;;;;;;;20.69;51.39;99550.34;5304050;32;44794;-69
2022/09/16 15:26:24;;;;;;;;;;;;;;;20.90;51.60;99563.47;5330645;32;33482;-70
2022/09/16 15:29:37;;;;;;;;;;;;;;;22.00;48.97;99558.94;5324965;32;33678;-68
2022/09/16 15:32:43;;;;;;;;;;;;;;;21.60;49.84;99546.84;5320746;32;34199;-69
2022/09/16 15:35:48;;;;;;;;;;;;;;;22.05;48.99;99553.13;5334069;32;45012;-73
2022/09/16 15:38:55;;;;;;;;;;;;;;;21.62;50.20;99550.19;5320938;32;34342;-70
2022/09/16 15:42:06;;;;;;;;;;;;;;;21.82;49.54;99547.38;5323913;32;33367;-68
2022/09/16 15:45:16;;;;;;;;;;;;;;;21.22;51.36;99552.37;5323260;32;33240;-74
2022/09/16 15:48:19;;;;;;;;;;;;;;;21.75;50.23;99543.63;5337234;32;45086;-70
2022/09/16 15:51:21;;;;;;;;;;;;;;;21.35;50.67;99555.56;5312964;32;33124;-68
2022/09/16 15:54:37;;;;;;;;;;;;;;;20.85;52.25;99563.06;5323158;32;34524;-72
2022/09/16 15:57:39;;;;;;;;;;;;;;;21.02;52.01;99564.97;5327218;32;33354;-73
2022/09/16 16:00:56;;;;;;;;;;;;;;;21.12;52.04;99564.94;5325377;32;32951;-70
2022/09/16 16:03:59;;;;;;;;;;;;;;;19.65;55.67;99554.56;5341312;32;33696;-70
2022/09/16 16:07:02;;;;;;;;;;;;;;;19.45;55.88;99543.00;5313146;32;33612;-70